Time;durP1;ratioP1;P1;durP2;ratioP2;P2;SDS_P1;SDS_P2;PMS_P1;PMS_P2;Temp;Humidity;BMP_temperature;BMP_pressure;BME280_temperature;BME280_humidity;BME280_pressure;Samples;Min_cycle;Max_cycle;Signal;HPM_P1;HPM_P2
2022/08/16 00:01:28;;;;;;;18.55;13.80;;;;;;;;;;5043266;28;20025;-60
2022/08/16 00:03:54;;;;;;;15.52;12.93;;;;;;;;;;5047365;28;20017;-60
2022/08/16 00:06:20;;;;;;;17.20;13.30;;;;;;;;;;5046709;28;20029;-60
2022/08/16 00:08:46;;;;;;;18.20;14.25;;;;;;;;;;5047148;28;20055;-60
2022/08/16 00:11:12;;;;;;;17.35;13.40;;;;;;;;;;5048126;28;20025;-60
2022/08/16 00:13:39;;;;;;;15.80;12.25;;;;;;;;;;5046693;28;20108;-60
2022/08/16 00:16:05;;;;;;;13.95;12.45;;;;;;;;;;5044286;28;20029;-60
2022/08/16 00:18:31;;;;;;;15.10;12.07;;;;;;;;;;5047870;28;20124;-60
2022/08/16 00:20:57;;;;;;;14.30;11.82;;;;;;;;;;5048882;28;20464;-60
2022/08/16 00:23:24;;;;;;;16.30;12.48;;;;;;;;;;5041936;28;20028;-60
2022/08/16 00:25:50;;;;;;;14.77;11.98;;;;;;;;;;5049131;28;20040;-60
2022/08/16 00:28:16;;;;;;;16.63;12.43;;;;;;;;;;5048723;28;20440;-60
2022/08/16 00:30:42;;;;;;;13.80;11.63;;;;;;;;;;5047371;28;20060;-60
2022/08/16 00:33:08;;;;;;;25.10;13.20;;;;;;;;;;5047908;28;21017;-60
2022/08/16 00:35:36;;;;;;;17.08;13.70;;;;;;;;;;5049555;28;20083;-60
2022/08/16 00:38:02;;;;;;;17.73;13.50;;;;;;;;;;5050805;28;20048;-60
2022/08/16 00:40:39;;;;;;;15.80;12.98;;;;;;;;;;5046967;28;20023;-60
2022/08/16 00:43:27;;;;;;;17.25;13.43;;;;;;;;;;5044069;28;20484;-60
2022/08/16 00:45:57;;;;;;;16.27;13.60;;;;;;;;;;5042449;28;20415;-60
2022/08/16 00:48:23;;;;;;;15.10;12.27;;;;;;;;;;5046004;28;20029;-60
2022/08/16 00:50:50;;;;;;;15.65;11.98;;;;;;;;;;5049409;28;20475;-60
2022/08/16 00:53:16;;;;;;;19.63;14.60;;;;;;;;;;5047226;28;20028;-59
2022/08/16 00:55:46;;;;;;;16.95;13.27;;;;;;;;;;5045562;28;20030;-60
2022/08/16 00:58:12;;;;;;;19.75;15.23;;;;;;;;;;5042522;28;20043;-60
2022/08/16 01:00:39;;;;;;;14.77;13.00;;;;;;;;;;5048554;28;20148;-60
2022/08/16 01:03:09;;;;;;;17.58;13.73;;;;;;;;;;5047494;28;20059;-60
2022/08/16 01:05:36;;;;;;;16.73;14.23;;;;;;;;;;5048350;28;20051;-60
2022/08/16 01:08:02;;;;;;;16.23;13.85;;;;;;;;;;5049931;28;20128;-60
2022/08/16 01:10:29;;;;;;;17.42;13.30;;;;;;;;;;5048474;28;20049;-60
2022/08/16 01:12:55;;;;;;;17.38;12.75;;;;;;;;;;5045834;28;20103;-60
2022/08/16 01:15:22;;;;;;;17.15;13.23;;;;;;;;;;5048449;28;20136;-60
2022/08/16 01:17:48;;;;;;;19.48;14.30;;;;;;;;;;5054564;28;20415;-60
2022/08/16 01:20:16;;;;;;;16.98;13.20;;;;;;;;;;5049215;28;20029;-60
2022/08/16 01:22:52;;;;;;;16.67;13.63;;;;;;;;;;5050304;28;20029;-60
2022/08/16 01:25:20;;;;;;;18.58;13.10;;;;;;;;;;5051639;28;20531;-60
2022/08/16 01:27:47;;;;;;;16.00;13.45;;;;;;;;;;5052278;28;20048;-60
2022/08/16 01:30:13;;;;;;;18.33;13.55;;;;;;;;;;5051808;28;20029;-60
2022/08/16 01:32:42;;;;;;;18.38;13.63;;;;;;;;;;5052723;28;20036;-60
2022/08/16 01:35:14;;;;;;;17.23;14.20;;;;;;;;;;5049707;28;20032;-60
2022/08/16 01:37:45;;;;;;;18.08;13.57;;;;;;;;;;5052625;28;20116;-60
2022/08/16 01:40:13;;;;;;;21.00;13.68;;;;;;;;;;5049803;28;20036;-60
2022/08/16 01:42:39;;;;;;;15.35;13.32;;;;;;;;;;5051526;28;20071;-60
2022/08/16 01:45:05;;;;;;;15.68;12.77;;;;;;;;;;5051861;28;20029;-60
2022/08/16 01:47:32;;;;;;;17.27;14.15;;;;;;;;;;5050344;28;20090;-60
2022/08/16 01:49:58;;;;;;;16.30;12.93;;;;;;;;;;5051206;28;20515;-60
2022/08/16 01:52:24;;;;;;;21.67;13.38;;;;;;;;;;5053559;28;20033;-60
2022/08/16 01:54:50;;;;;;;20.15;14.82;;;;;;;;;;5047969;28;20037;-60
2022/08/16 01:57:16;;;;;;;15.90;13.25;;;;;;;;;;5049557;28;20083;-60
2022/08/16 01:59:42;;;;;;;15.82;13.35;;;;;;;;;;5044801;28;20527;-60
2022/08/16 02:02:09;;;;;;;20.17;14.38;;;;;;;;;;5044830;28;20442;-60
2022/08/16 02:04:35;;;;;;;18.88;14.88;;;;;;;;;;5051893;28;20078;-60
2022/08/16 02:07:07;;;;;;;18.95;14.32;;;;;;;;;;5052080;28;20032;-58
2022/08/16 02:09:36;;;;;;;16.60;12.93;;;;;;;;;;5050328;28;20040;-60
2022/08/16 02:12:02;;;;;;;20.83;14.75;;;;;;;;;;5047386;28;20577;-61
2022/08/16 02:14:29;;;;;;;18.40;13.88;;;;;;;;;;5049484;28;20356;-60
2022/08/16 02:16:57;;;;;;;16.92;13.43;;;;;;;;;;5050924;28;20032;-59
2022/08/16 02:19:24;;;;;;;14.70;11.73;;;;;;;;;;5048164;28;20017;-60
2022/08/16 02:21:52;;;;;;;16.10;13.13;;;;;;;;;;5051317;28;20522;-60
2022/08/16 02:24:18;;;;;;;19.23;13.60;;;;;;;;;;5052310;28;20510;-60
2022/08/16 02:26:44;;;;;;;15.43;12.32;;;;;;;;;;5048595;28;20033;-60
2022/08/16 02:29:10;;;;;;;17.65;12.73;;;;;;;;;;5049734;28;20044;-60
2022/08/16 02:31:36;;;;;;;17.23;13.18;;;;;;;;;;5049008;28;20096;-60
2022/08/16 02:34:04;;;;;;;17.48;12.57;;;;;;;;;;5051555;28;20492;-61
2022/08/16 02:36:30;;;;;;;20.50;14.48;;;;;;;;;;5050134;28;20107;-60
2022/08/16 02:38:56;;;;;;;21.13;13.57;;;;;;;;;;5050012;28;20051;-61
2022/08/16 02:41:22;;;;;;;17.55;13.98;;;;;;;;;;5050899;28;20508;-60
2022/08/16 02:43:48;;;;;;;17.60;15.10;;;;;;;;;;5047499;28;20032;-61
2022/08/16 02:46:14;;;;;;;18.67;13.70;;;;;;;;;;5051248;28;20040;-61
2022/08/16 02:48:40;;;;;;;20.13;15.50;;;;;;;;;;5050540;28;20040;-60
2022/08/16 02:51:07;;;;;;;22.90;16.58;;;;;;;;;;5050435;28;20033;-64
2022/08/16 02:53:34;;;;;;;19.52;15.85;;;;;;;;;;5051318;28;20120;-60
2022/08/16 02:56:00;;;;;;;19.17;15.63;;;;;;;;;;5046416;28;20079;-60
2022/08/16 02:58:26;;;;;;;23.98;17.13;;;;;;;;;;5047049;28;20361;-60
2022/08/16 03:00:53;;;;;;;24.05;15.75;;;;;;;;;;5049366;28;20071;-60
2022/08/16 03:03:20;;;;;;;20.33;15.77;;;;;;;;;;5047841;28;20071;-60
2022/08/16 03:05:50;;;;;;;23.73;15.50;;;;;;;;;;5040921;28;20564;-60
2022/08/16 03:08:16;;;;;;;18.75;14.98;;;;;;;;;;5048819;28;20032;-60
2022/08/16 03:10:42;;;;;;;24.15;15.63;;;;;;;;;;5044178;28;20040;-60
2022/08/16 03:13:09;;;;;;;20.58;15.48;;;;;;;;;;5050419;28;20059;-60
2022/08/16 03:15:34;;;;;;;21.42;14.73;;;;;;;;;;5049316;28;20021;-59
2022/08/16 03:18:01;;;;;;;18.30;14.93;;;;;;;;;;5049281;28;20037;-60
2022/08/16 03:20:27;;;;;;;18.17;14.73;;;;;;;;;;5049290;28;20021;-60
2022/08/16 03:22:53;;;;;;;20.70;15.00;;;;;;;;;;5046417;28;20116;-60
2022/08/16 03:25:19;;;;;;;17.92;14.40;;;;;;;;;;5051432;28;20064;-60
2022/08/16 03:27:45;;;;;;;20.13;14.23;;;;;;;;;;5049068;28;20167;-60
2022/08/16 03:30:13;;;;;;;17.00;13.63;;;;;;;;;;5042704;28;20424;-60
2022/08/16 03:32:39;;;;;;;17.35;13.35;;;;;;;;;;5045001;28;20035;-60
2022/08/16 03:35:06;;;;;;;16.42;12.30;;;;;;;;;;5049298;28;20040;-60
2022/08/16 03:37:33;;;;;;;21.05;13.95;;;;;;;;;;5051244;28;20075;-60
2022/08/16 03:39:59;;;;;;;16.60;13.52;;;;;;;;;;5048960;28;20040;-60
2022/08/16 03:42:25;;;;;;;17.77;14.02;;;;;;;;;;5050075;28;20021;-61
2022/08/16 03:44:51;;;;;;;18.35;14.20;;;;;;;;;;5045725;28;20036;-60
2022/08/16 03:47:17;;;;;;;18.27;13.40;;;;;;;;;;5040791;28;20033;-60
2022/08/16 03:49:44;;;;;;;16.33;13.70;;;;;;;;;;5047576;28;20067;-60
2022/08/16 03:52:12;;;;;;;16.88;13.60;;;;;;;;;;5050132;28;20070;-60
2022/08/16 03:54:38;;;;;;;16.70;12.82;;;;;;;;;;5050507;28;20032;-60
2022/08/16 03:57:04;;;;;;;18.00;14.48;;;;;;;;;;5049880;28;20074;-61
2022/08/16 03:59:30;;;;;;;18.25;13.02;;;;;;;;;;5042454;28;20108;-61
2022/08/16 04:01:57;;;;;;;17.13;13.52;;;;;;;;;;5040153;28;20051;-60
2022/08/16 04:04:23;;;;;;;20.35;14.07;;;;;;;;;;5049129;28;20025;-60
2022/08/16 04:06:49;;;;;;;17.02;12.38;;;;;;;;;;5045909;28;20035;-60
2022/08/16 04:09:15;;;;;;;15.13;12.13;;;;;;;;;;5044448;28;20036;-60
2022/08/16 04:11:41;;;;;;;15.00;12.13;;;;;;;;;;5037100;28;20041;-60
2022/08/16 04:14:07;;;;;;;15.45;12.18;;;;;;;;;;5048248;28;20040;-60
2022/08/16 04:16:33;;;;;;;18.67;13.45;;;;;;;;;;5048918;28;20484;-60
2022/08/16 04:18:59;;;;;;;15.25;13.00;;;;;;;;;;5047192;28;20019;-61
2022/08/16 04:21:25;;;;;;;14.90;12.07;;;;;;;;;;5049156;28;20028;-60
2022/08/16 04:23:51;;;;;;;15.38;12.05;;;;;;;;;;5049740;28;20021;-60
2022/08/16 04:26:17;;;;;;;14.82;12.27;;;;;;;;;;5048377;28;20051;-61
2022/08/16 04:28:43;;;;;;;14.82;11.52;;;;;;;;;;5040142;28;20087;-60
2022/08/16 04:31:09;;;;;;;18.45;12.55;;;;;;;;;;5046628;28;20112;-60
2022/08/16 04:33:36;;;;;;;14.70;12.77;;;;;;;;;;5051095;28;20033;-60
2022/08/16 04:36:02;;;;;;;21.25;15.40;;;;;;;;;;5048180;28;20415;-60
2022/08/16 04:38:28;;;;;;;19.83;13.70;;;;;;;;;;5042269;28;20024;-60
2022/08/16 04:40:54;;;;;;;19.77;13.73;;;;;;;;;;5046207;28;20029;-60
2022/08/16 04:43:20;;;;;;;17.17;12.45;;;;;;;;;;5049649;28;20029;-61
2022/08/16 04:45:46;;;;;;;13.25;11.27;;;;;;;;;;5048493;28;20078;-60
2022/08/16 04:48:12;;;;;;;15.57;11.45;;;;;;;;;;5051342;28;20025;-61
2022/08/16 04:50:38;;;;;;;15.35;12.32;;;;;;;;;;5047109;28;20030;-60
2022/08/16 04:53:05;;;;;;;14.18;11.98;;;;;;;;;;5048104;28;20025;-60
2022/08/16 04:55:31;;;;;;;20.25;13.88;;;;;;;;;;5051217;28;20020;-60
2022/08/16 04:57:57;;;;;;;16.40;13.32;;;;;;;;;;5050275;28;20113;-60
2022/08/16 05:00:24;;;;;;;17.80;12.77;;;;;;;;;;5052058;28;20044;-60
2022/08/16 05:02:54;;;;;;;20.00;13.50;;;;;;;;;;5052689;28;20036;-60
2022/08/16 05:05:21;;;;;;;15.25;12.25;;;;;;;;;;5054501;28;20031;-60
2022/08/16 05:07:47;;;;;;;15.30;12.20;;;;;;;;;;5052460;28;20142;-60
2022/08/16 05:10:14;;;;;;;12.90;11.30;;;;;;;;;;5049113;28;20032;-60
2022/08/16 05:12:40;;;;;;;13.57;11.48;;;;;;;;;;5049806;28;20567;-60
2022/08/16 05:15:07;;;;;;;16.75;12.95;;;;;;;;;;5051754;28;20021;-60
2022/08/16 05:17:33;;;;;;;19.20;14.05;;;;;;;;;;5039079;28;20038;-60
2022/08/16 05:19:59;;;;;;;18.48;13.40;;;;;;;;;;5046066;28;20033;-61
2022/08/16 05:22:25;;;;;;;20.00;15.18;;;;;;;;;;5046056;28;20033;-61
2022/08/16 05:24:52;;;;;;;22.45;15.80;;;;;;;;;;5051111;28;20035;-60
2022/08/16 05:27:18;;;;;;;20.30;16.00;;;;;;;;;;5052962;28;20377;-60
2022/08/16 05:29:44;;;;;;;23.60;15.85;;;;;;;;;;5045699;28;20036;-60
2022/08/16 05:32:10;;;;;;;19.73;15.73;;;;;;;;;;5051651;28;20021;-60
2022/08/16 05:34:36;;;;;;;23.33;18.17;;;;;;;;;;5053683;28;20032;-61
2022/08/16 05:37:03;;;;;;;23.65;18.60;;;;;;;;;;5048587;28;20028;-61
2022/08/16 05:39:29;;;;;;;26.20;18.98;;;;;;;;;;5052206;28;20029;-60
2022/08/16 05:41:55;;;;;;;26.08;18.48;;;;;;;;;;5042924;28;20124;-60
2022/08/16 05:44:22;;;;;;;23.65;17.65;;;;;;;;;;5050921;28;20074;-61
2022/08/16 05:46:48;;;;;;;28.08;19.40;;;;;;;;;;5047300;28;20081;-61
2022/08/16 05:49:15;;;;;;;25.92;19.90;;;;;;;;;;5051711;28;20025;-61
2022/08/16 05:51:45;;;;;;;26.30;20.35;;;;;;;;;;5052062;28;20060;-60
2022/08/16 05:54:11;;;;;;;29.92;21.75;;;;;;;;;;5053451;28;20109;-60
2022/08/16 05:56:38;;;;;;;29.05;21.73;;;;;;;;;;5052661;28;20069;-61
2022/08/16 05:59:05;;;;;;;25.27;19.70;;;;;;;;;;5052775;28;20036;-61
2022/08/16 06:01:31;;;;;;;29.80;23.15;;;;;;;;;;5045245;28;20028;-60
2022/08/16 06:03:57;;;;;;;29.10;21.88;;;;;;;;;;5049685;28;20086;-60
2022/08/16 06:06:22;;;;;;;29.95;23.23;;;;;;;;;;5051619;28;20029;-60
2022/08/16 06:08:48;;;;;;;30.13;21.58;;;;;;;;;;5051412;28;20041;-60
2022/08/16 06:11:14;;;;;;;30.65;22.20;;;;;;;;;;5047076;28;20074;-58
2022/08/16 06:13:42;;;;;;;31.85;23.75;;;;;;;;;;5036769;28;20033;-60
2022/08/16 06:16:08;;;;;;;30.48;23.13;;;;;;;;;;5047267;28;20476;-60
2022/08/16 06:18:34;;;;;;;34.15;23.23;;;;;;;;;;5045068;28;20017;-61
2022/08/16 06:21:00;;;;;;;32.70;23.35;;;;;;;;;;5039275;28;20558;-61
2022/08/16 06:23:26;;;;;;;31.13;22.77;;;;;;;;;;5050664;28;20460;-60
2022/08/16 06:25:52;;;;;;;28.85;23.13;;;;;;;;;;5047105;28;20036;-60
2022/08/16 06:28:19;;;;;;;30.30;22.33;;;;;;;;;;5052121;28;20017;-60
2022/08/16 06:30:45;;;;;;;32.60;23.48;;;;;;;;;;5051855;28;20032;-61
2022/08/16 06:33:12;;;;;;;32.28;24.55;;;;;;;;;;5051468;28;20381;-61
2022/08/16 06:35:38;;;;;;;33.45;24.23;;;;;;;;;;5051693;28;20021;-61
2022/08/16 06:38:04;;;;;;;30.75;24.42;;;;;;;;;;5052326;28;20032;-61
2022/08/16 06:40:32;;;;;;;28.25;23.80;;;;;;;;;;5052371;28;20379;-61
2022/08/16 06:42:58;;;;;;;25.13;20.90;;;;;;;;;;5052572;28;20029;-61
2022/08/16 06:45:24;;;;;;;25.52;20.58;;;;;;;;;;5052514;28;20116;-61
2022/08/16 06:47:50;;;;;;;23.67;18.73;;;;;;;;;;5051660;28;20047;-61
2022/08/16 06:50:17;;;;;;;24.77;19.17;;;;;;;;;;5051964;28;20063;-60
2022/08/16 06:52:45;;;;;;;23.75;18.13;;;;;;;;;;5049479;28;20025;-61
2022/08/16 06:55:12;;;;;;;21.30;17.33;;;;;;;;;;5051244;28;20036;-61
2022/08/16 06:57:38;;;;;;;20.00;16.08;;;;;;;;;;5053150;28;20105;-61
2022/08/16 07:00:12;;;;;;;21.20;14.88;;;;;;;;;;5052135;28;20494;-61
2022/08/16 07:02:38;;;;;;;23.23;16.95;;;;;;;;;;5051209;28;20032;-61
2022/08/16 07:05:05;;;;;;;20.63;15.43;;;;;;;;;;5050330;28;20464;-61
2022/08/16 07:07:31;;;;;;;20.60;15.88;;;;;;;;;;5050788;28;20392;-61
2022/08/16 07:09:57;;;;;;;22.75;15.60;;;;;;;;;;5050672;28;20071;-61
2022/08/16 07:12:23;;;;;;;17.48;13.40;;;;;;;;;;5051524;28;20025;-61
2022/08/16 07:14:49;;;;;;;16.02;12.68;;;;;;;;;;5051687;28;20021;-61
2022/08/16 07:17:18;;;;;;;19.30;14.85;;;;;;;;;;5051178;28;20079;-61
2022/08/16 07:19:44;;;;;;;18.25;13.80;;;;;;;;;;5050363;28;20108;-60
2022/08/16 07:22:10;;;;;;;15.73;13.55;;;;;;;;;;5050950;28;20056;-60
2022/08/16 07:24:36;;;;;;;22.90;13.95;;;;;;;;;;5050981;28;20052;-61
2022/08/16 07:27:02;;;;;;;18.30;12.38;;;;;;;;;;5050192;28;20116;-60
2022/08/16 07:29:29;;;;;;;17.40;11.95;;;;;;;;;;5051615;28;20079;-60
2022/08/16 07:31:55;;;;;;;16.85;13.02;;;;;;;;;;5049578;28;20033;-60
2022/08/16 07:34:21;;;;;;;14.00;10.43;;;;;;;;;;5049775;28;20029;-60
2022/08/16 07:36:47;;;;;;;13.15;10.65;;;;;;;;;;5051826;28;20021;-60
2022/08/16 07:39:14;;;;;;;15.50;11.52;;;;;;;;;;5046844;28;20048;-60
2022/08/16 07:41:40;;;;;;;14.88;12.00;;;;;;;;;;5046265;28;20033;-60
2022/08/16 07:44:06;;;;;;;13.30;11.18;;;;;;;;;;5051182;28;20031;-60
2022/08/16 07:46:32;;;;;;;15.05;10.25;;;;;;;;;;5049591;28;20104;-60
2022/08/16 07:48:58;;;;;;;16.02;10.88;;;;;;;;;;5051981;28;20037;-60
2022/08/16 07:51:24;;;;;;;13.38;9.77;;;;;;;;;;5049476;28;20027;-60
2022/08/16 07:53:50;;;;;;;16.05;10.13;;;;;;;;;;5051363;28;20032;-59
2022/08/16 07:56:17;;;;;;;15.45;10.65;;;;;;;;;;5051159;28;20554;-60
2022/08/16 07:58:44;;;;;;;14.57;11.02;;;;;;;;;;5051037;28;20523;-59
2022/08/16 08:01:10;;;;;;;12.48;10.00;;;;;;;;;;5044341;28;20045;-59
2022/08/16 08:03:36;;;;;;;14.20;10.25;;;;;;;;;;5048305;28;20039;-59
2022/08/16 08:06:02;;;;;;;13.98;9.70;;;;;;;;;;5047199;28;20445;-59
2022/08/16 08:08:28;;;;;;;13.20;10.10;;;;;;;;;;5049990;28;20045;-59
2022/08/16 08:10:54;;;;;;;11.32;9.30;;;;;;;;;;5049205;28;20029;-59
2022/08/16 08:13:21;;;;;;;13.57;9.68;;;;;;;;;;5050071;28;20078;-59
2022/08/16 08:15:47;;;;;;;15.23;10.98;;;;;;;;;;5049325;28;20498;-60
2022/08/16 08:18:13;;;;;;;16.77;11.40;;;;;;;;;;5051503;28;20043;-59
2022/08/16 08:20:43;;;;;;;15.10;10.80;;;;;;;;;;5046118;28;20029;-59
2022/08/16 08:23:10;;;;;;;19.02;11.48;;;;;;;;;;5051317;28;20064;-59
2022/08/16 08:25:36;;;;;;;13.63;9.55;;;;;;;;;;5049606;28;20032;-59
2022/08/16 08:28:02;;;;;;;13.30;10.05;;;;;;;;;;5047351;28;20057;-59
2022/08/16 08:30:28;;;;;;;12.70;9.90;;;;;;;;;;5050149;28;20527;-59
2022/08/16 08:32:54;;;;;;;14.48;9.82;;;;;;;;;;5049749;28;20093;-59
2022/08/16 08:35:20;;;;;;;14.50;10.30;;;;;;;;;;5050095;28;20029;-60
2022/08/16 08:37:46;;;;;;;14.15;9.35;;;;;;;;;;5047082;28;20028;-59
2022/08/16 08:40:12;;;;;;;15.80;10.85;;;;;;;;;;5049710;28;20025;-59
2022/08/16 08:42:42;;;;;;;15.55;9.43;;;;;;;;;;5044906;28;20512;-59
2022/08/16 08:45:09;;;;;;;13.05;9.00;;;;;;;;;;5050325;28;20052;-59
2022/08/16 08:47:35;;;;;;;14.48;8.77;;;;;;;;;;5050543;28;20049;-59
2022/08/16 08:50:01;;;;;;;10.13;7.70;;;;;;;;;;5049766;28;20100;-59
2022/08/16 08:52:27;;;;;;;11.40;9.18;;;;;;;;;;5046694;28;20034;-59
2022/08/16 08:54:54;;;;;;;13.80;9.40;;;;;;;;;;5049882;28;20040;-59
2022/08/16 08:57:20;;;;;;;13.05;8.95;;;;;;;;;;5050189;28;20032;-60
2022/08/16 08:59:46;;;;;;;9.95;7.50;;;;;;;;;;5049950;28;20423;-59
2022/08/16 09:02:15;;;;;;;13.93;8.68;;;;;;;;;;5051079;28;20029;-59
2022/08/16 09:04:42;;;;;;;11.27;8.57;;;;;;;;;;5051319;28;20021;-59
2022/08/16 09:07:08;;;;;;;12.80;7.93;;;;;;;;;;5050962;28;20033;-59
2022/08/16 09:09:34;;;;;;;13.63;9.13;;;;;;;;;;5050869;28;20033;-60
2022/08/16 09:12:00;;;;;;;13.20;8.00;;;;;;;;;;5049747;28;20025;-60
2022/08/16 09:14:27;;;;;;;11.95;8.02;;;;;;;;;;5042753;28;20081;-59
2022/08/16 09:16:53;;;;;;;12.45;7.97;;;;;;;;;;5043430;28;20041;-60
2022/08/16 09:19:21;;;;;;;13.68;8.85;;;;;;;;;;5047778;28;20135;-60
2022/08/16 09:21:48;;;;;;;10.13;7.07;;;;;;;;;;5044916;28;20029;-59
2022/08/16 09:24:14;;;;;;;11.40;7.03;;;;;;;;;;5043792;28;20108;-59
2022/08/16 09:26:40;;;;;;;9.93;7.15;;;;;;;;;;5042824;28;20027;-59
2022/08/16 09:29:07;;;;;;;10.25;6.53;;;;;;;;;;5044418;28;20029;-60
2022/08/16 09:31:34;;;;;;;12.50;6.55;;;;;;;;;;5050156;28;20025;-59
2022/08/16 09:34:01;;;;;;;9.20;6.75;;;;;;;;;;5050895;28;20033;-59
2022/08/16 09:36:28;;;;;;;9.90;6.28;;;;;;;;;;5047897;28;20194;-59
2022/08/16 09:38:55;;;;;;;11.90;7.32;;;;;;;;;;5052319;28;20147;-60
2022/08/16 09:41:21;;;;;;;9.63;6.30;;;;;;;;;;5040393;28;20104;-60
2022/08/16 09:43:47;;;;;;;8.27;6.45;;;;;;;;;;5053072;28;20127;-59
2022/08/16 09:46:13;;;;;;;9.65;6.72;;;;;;;;;;5053761;28;20134;-60
2022/08/16 09:48:40;;;;;;;10.48;5.85;;;;;;;;;;5042363;28;20072;-59
2022/08/16 09:51:08;;;;;;;9.48;6.65;;;;;;;;;;5051720;28;20013;-61
2022/08/16 09:53:36;;;;;;;12.63;7.03;;;;;;;;;;5053459;28;20021;-59
2022/08/16 09:56:03;;;;;;;12.30;7.40;;;;;;;;;;5046181;28;20392;-59
2022/08/16 09:58:29;;;;;;;8.80;5.97;;;;;;;;;;5049539;28;20435;-60
2022/08/16 10:00:55;;;;;;;7.10;5.60;;;;;;;;;;5051879;28;20039;-59
2022/08/16 10:03:25;;;;;;;6.57;5.15;;;;;;;;;;5042654;28;20028;-60
2022/08/16 10:05:52;;;;;;;8.48;6.40;;;;;;;;;;5049410;28;20066;-60
2022/08/16 10:08:19;;;;;;;9.73;6.70;;;;;;;;;;5051341;28;20543;-59
2022/08/16 10:13:10;;;;;;;11.48;6.13;;;;;;;;;;5051408;28;20035;-59
2022/08/16 10:13:35;;;;;;;10.25;6.03;;;;;;;;;;5053661;28;20029;-59
2022/08/16 10:16:01;;;;;;;9.45;5.93;;;;;;;;;;5052561;28;20791;-60
2022/08/16 10:18:29;;;;;;;10.05;5.75;;;;;;;;;;5049868;28;20021;-60
2022/08/16 10:20:59;;;;;;;8.20;5.85;;;;;;;;;;5053046;28;20021;-59
2022/08/16 10:23:25;;;;;;;5.95;5.05;;;;;;;;;;5039918;28;20023;-59
2022/08/16 10:25:51;;;;;;;13.93;6.20;;;;;;;;;;5051990;28;20074;-59
2022/08/16 10:28:17;;;;;;;13.73;6.32;;;;;;;;;;5052260;28;20029;-60
2022/08/16 10:30:43;;;;;;;8.35;6.10;;;;;;;;;;5042781;28;20021;-60
2022/08/16 10:33:12;;;;;;;10.85;7.10;;;;;;;;;;5034812;28;20021;-60
2022/08/16 10:35:38;;;;;;;10.43;5.60;;;;;;;;;;5036876;28;20083;-60
2022/08/16 10:38:04;;;;;;;9.50;5.97;;;;;;;;;;5040309;28;20029;-59
2022/08/16 10:40:30;;;;;;;9.90;5.85;;;;;;;;;;5036380;28;20449;-60
2022/08/16 10:42:58;;;;;;;13.05;5.55;;;;;;;;;;5037122;28;20053;-60
2022/08/16 10:45:24;;;;;;;11.90;5.43;;;;;;;;;;5036779;28;20017;-60
2022/08/16 10:47:50;;;;;;;6.80;4.75;;;;;;;;;;5043044;28;20045;-60
2022/08/16 10:50:17;;;;;;;17.17;5.43;;;;;;;;;;5041726;28;20366;-59
2022/08/16 10:52:43;;;;;;;8.65;5.78;;;;;;;;;;5041122;28;20099;-60
2022/08/16 10:55:11;;;;;;;8.85;5.70;;;;;;;;;;5047328;28;20025;-59
2022/08/16 10:57:38;;;;;;;7.72;5.13;;;;;;;;;;5046436;28;20086;-59
2022/08/16 11:00:09;;;;;;;8.50;4.85;;;;;;;;;;5046326;28;20104;-59
2022/08/16 11:02:36;;;;;;;8.35;4.90;;;;;;;;;;5038347;28;20064;-60
2022/08/16 11:05:02;;;;;;;6.72;4.32;;;;;;;;;;5034926;28;20023;-58
2022/08/16 11:07:28;;;;;;;8.80;4.22;;;;;;;;;;5037725;28;20040;-58
2022/08/16 11:09:57;;;;;;;6.00;3.88;;;;;;;;;;5049783;28;20086;-58
2022/08/16 11:12:23;;;;;;;7.30;3.88;;;;;;;;;;5043955;28;20021;-57
2022/08/16 11:14:49;;;;;;;5.68;3.90;;;;;;;;;;5039111;28;20033;-57
2022/08/16 11:17:14;;;;;;;7.78;3.45;;;;;;;;;;5046344;28;20033;-60
2022/08/16 11:19:40;;;;;;;6.35;3.28;;;;;;;;;;5039485;28;20500;-60
2022/08/16 11:22:07;;;;;;;8.65;4.00;;;;;;;;;;5041282;28;20365;-59
2022/08/16 11:24:33;;;;;;;5.38;3.10;;;;;;;;;;5041610;28;20338;-59
2022/08/16 11:26:59;;;;;;;7.90;3.90;;;;;;;;;;5040435;28;20033;-59
2022/08/16 11:29:25;;;;;;;5.68;3.83;;;;;;;;;;5049892;28;20029;-60
2022/08/16 11:31:51;;;;;;;5.32;3.60;;;;;;;;;;5040525;28;20423;-60
2022/08/16 11:34:17;;;;;;;5.20;3.38;;;;;;;;;;5033938;28;20034;-60
2022/08/16 11:36:43;;;;;;;6.15;3.70;;;;;;;;;;5036883;28;20037;-59
2022/08/16 11:39:09;;;;;;;5.22;3.53;;;;;;;;;;5038904;28;20070;-59
2022/08/16 11:41:37;;;;;;;6.53;3.72;;;;;;;;;;5034691;28;20392;-60
2022/08/16 11:44:04;;;;;;;3.78;2.90;;;;;;;;;;5040446;28;20053;-60
2022/08/16 11:46:30;;;;;;;6.07;3.90;;;;;;;;;;5034044;28;20037;-60
2022/08/16 11:48:56;;;;;;;6.68;4.18;;;;;;;;;;5038294;28;20381;-60
2022/08/16 11:51:23;;;;;;;5.70;3.67;;;;;;;;;;5034048;28;20025;-60
2022/08/16 11:53:49;;;;;;;6.03;3.50;;;;;;;;;;5037422;28;20033;-60
2022/08/16 11:56:15;;;;;;;5.57;3.80;;;;;;;;;;5036253;28;20488;-59
2022/08/16 11:58:41;;;;;;;5.20;2.97;;;;;;;;;;5039037;28;20028;-60
2022/08/16 12:01:07;;;;;;;4.20;3.78;;;;;;;;;;5034996;28;20030;-59
2022/08/16 12:03:34;;;;;;;7.07;4.40;;;;;;;;;;5040610;28;20446;-60
2022/08/16 12:06:01;;;;;;;5.20;3.47;;;;;;;;;;5036653;28;20428;-61
2022/08/16 12:08:28;;;;;;;3.75;3.30;;;;;;;;;;5049039;28;20053;-59
2022/08/16 12:10:55;;;;;;;7.63;3.60;;;;;;;;;;5041874;28;20457;-59
2022/08/16 12:13:21;;;;;;;6.75;3.97;;;;;;;;;;5049664;28;20055;-60
2022/08/16 12:15:47;;;;;;;6.55;3.78;;;;;;;;;;5043527;28;20481;-60
2022/08/16 12:18:13;;;;;;;4.20;3.03;;;;;;;;;;5047573;28;20476;-59
2022/08/16 12:20:41;;;;;;;8.20;3.83;;;;;;;;;;5044817;28;20029;-59
2022/08/16 12:23:08;;;;;;;7.82;3.25;;;;;;;;;;5038897;28;20021;-60
2022/08/16 12:25:35;;;;;;;4.68;3.03;;;;;;;;;;5041653;28;20476;-57
2022/08/16 12:28:02;;;;;;;7.18;3.13;;;;;;;;;;5049194;28;20029;-58
2022/08/16 12:30:29;;;;;;;9.07;2.80;;;;;;;;;;5042928;28;20032;-58
2022/08/16 12:32:56;;;;;;;5.55;2.88;;;;;;;;;;5036420;28;20037;-58
2022/08/16 12:35:23;;;;;;;5.25;3.03;;;;;;;;;;5033639;28;20082;-58
2022/08/16 12:37:49;;;;;;;4.47;3.60;;;;;;;;;;5050125;28;20045;-58
2022/08/16 12:40:19;;;;;;;7.70;3.22;;;;;;;;;;5042526;28;20026;-60
2022/08/16 12:42:47;;;;;;;3.95;3.10;;;;;;;;;;5049977;28;20051;-60
2022/08/16 12:45:14;;;;;;;5.28;3.10;;;;;;;;;;5051502;28;20044;-60
2022/08/16 12:50:25;;;;;;;9.32;3.53;;;;;;;;;;5051154;28;20613;-59
2022/08/16 12:52:51;;;;;;;10.38;3.45;;;;;;;;;;5051600;28;20025;-59
2022/08/16 12:55:17;;;;;;;5.68;3.60;;;;;;;;;;5051404;28;20035;-59
2022/08/16 12:57:43;;;;;;;5.40;3.00;;;;;;;;;;5051337;28;20029;-60
2022/08/16 13:00:12;;;;;;;5.05;3.30;;;;;;;;;;5042835;28;20108;-60
2022/08/16 13:02:39;;;;;;;5.32;3.50;;;;;;;;;;5049640;28;20032;-59
2022/08/16 13:05:05;;;;;;;10.60;4.00;;;;;;;;;;5051270;28;20083;-59
2022/08/16 13:07:32;;;;;;;6.18;3.53;;;;;;;;;;5051129;28;20045;-60
2022/08/16 13:10:07;;;;;;;7.45;3.58;;;;;;;;;;5050885;28;20021;-60
2022/08/16 13:12:33;;;;;;;6.22;3.70;;;;;;;;;;5053223;28;20029;-59
2022/08/16 13:15:00;;;;;;;7.03;3.58;;;;;;;;;;5054814;28;20040;-60
2022/08/16 13:17:26;;;;;;;8.57;3.15;;;;;;;;;;5054761;28;20032;-59
2022/08/16 13:19:53;;;;;;;6.43;3.20;;;;;;;;;;5054839;28;20532;-59
2022/08/16 13:22:20;;;;;;;9.90;3.78;;;;;;;;;;5054886;28;20060;-59
2022/08/16 13:24:46;;;;;;;6.28;3.40;;;;;;;;;;5054956;28;20495;-60
2022/08/16 13:27:12;;;;;;;4.93;3.40;;;;;;;;;;5054632;28;20054;-60
2022/08/16 13:29:38;;;;;;;4.18;3.17;;;;;;;;;;5054600;28;20067;-60
2022/08/16 13:32:04;;;;;;;11.63;3.13;;;;;;;;;;5054537;28;20033;-61
2022/08/16 13:34:30;;;;;;;4.60;2.70;;;;;;;;;;5054767;28;20028;-59
2022/08/16 13:36:56;;;;;;;5.22;2.60;;;;;;;;;;5054604;28;20437;-60
2022/08/16 13:39:22;;;;;;;5.13;2.80;;;;;;;;;;5054519;28;20028;-60
2022/08/16 13:41:48;;;;;;;3.78;2.65;;;;;;;;;;5053878;28;20040;-60
2022/08/16 13:44:15;;;;;;;3.40;2.53;;;;;;;;;;5054348;28;20028;-57
2022/08/16 13:46:41;;;;;;;5.65;3.08;;;;;;;;;;5054669;28;20372;-57
2022/08/16 13:49:07;;;;;;;2.63;2.22;;;;;;;;;;5054354;28;20037;-58
2022/08/16 13:51:33;;;;;;;2.70;2.20;;;;;;;;;;5053874;28;20029;-57
2022/08/16 13:54:03;;;;;;;4.57;2.50;;;;;;;;;;5054579;28;20025;-58
2022/08/16 13:56:32;;;;;;;5.35;2.47;;;;;;;;;;5054242;28;20025;-56
2022/08/16 13:58:58;;;;;;;3.65;2.65;;;;;;;;;;5054117;28;20491;-60
2022/08/16 14:01:24;;;;;;;5.15;2.58;;;;;;;;;;5050387;28;20380;-59
2022/08/16 14:03:49;;;;;;;4.97;2.60;;;;;;;;;;5046697;28;20032;-60
2022/08/16 14:06:15;;;;;;;4.43;2.55;;;;;;;;;;5054025;28;20098;-60
2022/08/16 14:08:43;;;;;;;2.70;2.28;;;;;;;;;;5054030;28;20045;-60
2022/08/16 14:11:10;;;;;;;6.15;2.67;;;;;;;;;;5052758;28;20037;-61
2022/08/16 14:13:36;;;;;;;4.05;2.20;;;;;;;;;;5054006;28;20032;-57
2022/08/16 14:16:02;;;;;;;5.95;2.35;;;;;;;;;;5041441;28;20099;-57
2022/08/16 14:18:28;;;;;;;3.63;2.05;;;;;;;;;;5048451;28;20116;-58
2022/08/16 14:20:55;;;;;;;4.88;2.10;;;;;;;;;;5052487;28;20025;-58
2022/08/16 14:23:21;;;;;;;3.42;1.60;;;;;;;;;;5045467;28;20030;-58
2022/08/16 14:25:47;;;;;;;3.85;1.60;;;;;;;;;;5050658;28;20032;-57